Time;durP1;ratioP1;P1;durP2;ratioP2;P2;SDS_P1;SDS_P2;PMS_P1;PMS_P2;Temp;Humidity;BMP_temperature;BMP_pressure;BME280_temperature;BME280_humidity;BME280_pressure;Samples;Min_cycle;Max_cycle;Signal;HPM_P1;HPM_P2
2022/06/30 00:01:55;;;;;;;2.97;1.23;;;;;;;;;;4933771;29;20024;-83
2022/06/30 00:04:21;;;;;;;3.75;1.20;;;;;;;;;;4933664;29;20099;-83
2022/06/30 00:06:47;;;;;;;4.72;1.30;;;;;;;;;;4933924;29;20432;-83
2022/06/30 00:09:13;;;;;;;3.97;1.40;;;;;;;;;;4934382;29;20098;-85
2022/06/30 00:11:41;;;;;;;3.30;1.20;;;;;;;;;;4933678;29;20504;-86
2022/06/30 00:14:07;;;;;;;5.57;1.43;;;;;;;;;;4933727;29;20043;-83
2022/06/30 00:16:33;;;;;;;2.88;1.20;;;;;;;;;;4933705;29;20052;-83
2022/06/30 00:18:59;;;;;;;3.50;1.23;;;;;;;;;;4933808;29;20023;-83
2022/06/30 00:21:25;;;;;;;3.50;1.25;;;;;;;;;;4933332;29;20083;-83
2022/06/30 00:23:51;;;;;;;5.50;1.25;;;;;;;;;;4933620;29;20102;-83
2022/06/30 00:26:17;;;;;;;2.92;1.27;;;;;;;;;;4933406;29;20063;-83
2022/06/30 00:28:43;;;;;;;9.07;1.40;;;;;;;;;;4934455;29;20484;-83
2022/06/30 00:31:09;;;;;;;4.03;1.50;;;;;;;;;;4933437;29;20102;-83
2022/06/30 00:33:35;;;;;;;4.00;1.33;;;;;;;;;;4933643;29;20107;-84
2022/06/30 00:36:01;;;;;;;10.48;1.30;;;;;;;;;;4933272;29;20534;-84
2022/06/30 00:38:27;;;;;;;4.60;1.30;;;;;;;;;;4933171;29;20020;-83
2022/06/30 00:40:53;;;;;;;5.40;1.33;;;;;;;;;;4933184;29;20028;-84
2022/06/30 00:43:19;;;;;;;3.55;1.15;;;;;;;;;;4932948;29;20031;-84
2022/06/30 00:45:47;;;;;;;4.30;1.45;;;;;;;;;;4934050;29;20032;-86
2022/06/30 00:48:14;;;;;;;11.07;1.52;;;;;;;;;;4933634;29;20130;-84
2022/06/30 00:50:41;;;;;;;3.33;1.30;;;;;;;;;;4933085;29;20058;-84
2022/06/30 00:53:08;;;;;;;5.82;2.00;;;;;;;;;;4932692;29;20480;-84
2022/06/30 00:55:34;;;;;;;6.88;1.52;;;;;;;;;;4932945;29;20058;-84
2022/06/30 00:58:01;;;;;;;4.95;1.50;;;;;;;;;;4933016;29;20031;-85
2022/06/30 01:00:29;;;;;;;7.03;1.60;;;;;;;;;;4932769;29;20032;-83
2022/06/30 01:02:55;;;;;;;4.93;1.50;;;;;;;;;;4932778;29;20035;-86
2022/06/30 01:05:22;;;;;;;4.30;1.40;;;;;;;;;;4932637;29;20031;-83
2022/06/30 01:07:48;;;;;;;6.25;1.52;;;;;;;;;;4932945;29;20031;-84
2022/06/30 01:12:59;;;;;;;4.28;1.38;;;;;;;;;;4931699;29;20065;-83
2022/06/30 01:15:25;;;;;;;4.72;1.40;;;;;;;;;;4932168;29;20469;-83
2022/06/30 01:17:51;;;;;;;6.03;1.10;;;;;;;;;;4932656;29;20031;-83
2022/06/30 01:20:19;;;;;;;4.25;1.45;;;;;;;;;;4933226;29;20047;-84
2022/06/30 01:22:45;;;;;;;4.00;1.50;;;;;;;;;;4933303;29;20034;-83
2022/06/30 01:25:11;;;;;;;6.80;1.50;;;;;;;;;;4932235;29;20030;-84
2022/06/30 01:27:38;;;;;;;5.60;1.50;;;;;;;;;;4932509;29;20027;-86
2022/06/30 01:30:04;;;;;;;4.50;1.70;;;;;;;;;;4946849;29;20024;-83
2022/06/30 01:32:30;;;;;;;5.72;1.48;;;;;;;;;;4932370;29;20107;-84
2022/06/30 01:34:56;;;;;;;5.18;1.42;;;;;;;;;;4946878;29;20500;-83
2022/06/30 01:37:23;;;;;;;5.30;1.50;;;;;;;;;;4931957;29;20044;-83
2022/06/30 01:39:49;;;;;;;4.25;1.50;;;;;;;;;;4932439;29;20075;-83
2022/06/30 01:42:15;;;;;;;5.95;1.50;;;;;;;;;;4932804;29;20028;-83
2022/06/30 01:44:41;;;;;;;4.22;1.73;;;;;;;;;;4946875;29;20390;-83
2022/06/30 01:47:08;;;;;;;4.20;1.40;;;;;;;;;;4931930;29;20032;-84
2022/06/30 01:49:34;;;;;;;5.90;1.60;;;;;;;;;;4932309;29;20023;-83
2022/06/30 01:52:00;;;;;;;9.07;1.80;;;;;;;;;;4935193;29;20082;-84
2022/06/30 01:54:26;;;;;;;3.67;1.50;;;;;;;;;;4933290;29;20118;-83
2022/06/30 01:56:52;;;;;;;3.00;1.30;;;;;;;;;;4934004;29;20048;-84
2022/06/30 01:59:19;;;;;;;4.57;1.40;;;;;;;;;;4933548;29;20031;-83
2022/06/30 02:01:45;;;;;;;2.63;1.30;;;;;;;;;;4947486;29;20123;-83
2022/06/30 02:06:55;;;;;;;5.13;1.67;;;;;;;;;;4931953;29;20046;-86
2022/06/30 02:09:21;;;;;;;3.88;1.67;;;;;;;;;;4931550;29;20076;-84
2022/06/30 02:11:47;;;;;;;3.88;1.30;;;;;;;;;;4932331;29;20039;-85
2022/06/30 02:14:13;;;;;;;5.20;1.80;;;;;;;;;;4931524;29;20027;-83
2022/06/30 02:16:39;;;;;;;6.95;1.80;;;;;;;;;;4931546;29;20035;-83
2022/06/30 02:19:05;;;;;;;5.25;1.42;;;;;;;;;;4931262;29;20024;-82
2022/06/30 02:21:31;;;;;;;5.95;1.55;;;;;;;;;;4931524;29;20063;-83
2022/06/30 02:23:57;;;;;;;2.47;1.45;;;;;;;;;;4931120;29;20020;-87
2022/06/30 02:26:23;;;;;;;4.30;1.70;;;;;;;;;;4931209;29;20031;-84
2022/06/30 02:28:50;;;;;;;5.90;1.65;;;;;;;;;;4932249;29;20031;-88
2022/06/30 02:31:16;;;;;;;3.15;1.48;;;;;;;;;;4946531;29;20444;-85
2022/06/30 02:33:42;;;;;;;2.17;1.52;;;;;;;;;;4931476;29;20036;-84
2022/06/30 02:36:08;;;;;;;8.40;2.25;;;;;;;;;;4931080;29;20035;-86
2022/06/30 02:38:34;;;;;;;6.57;1.85;;;;;;;;;;4931350;29;20031;-86
2022/06/30 02:41:00;;;;;;;5.07;1.70;;;;;;;;;;4946070;29;20036;-84
2022/06/30 02:43:26;;;;;;;1.65;1.23;;;;;;;;;;4931040;29;20038;-83
2022/06/30 02:45:52;;;;;;;7.53;1.70;;;;;;;;;;4931360;29;20028;-84
2022/06/30 02:48:19;;;;;;;4.35;1.70;;;;;;;;;;4946838;29;20032;-85
2022/06/30 02:50:45;;;;;;;4.72;1.70;;;;;;;;;;4931833;29;20023;-87
2022/06/30 02:53:12;;;;;;;5.00;1.80;;;;;;;;;;4931723;29;20174;-84
2022/06/30 02:55:38;;;;;;;5.60;1.73;;;;;;;;;;4931546;29;20503;-86
2022/06/30 02:58:04;;;;;;;9.35;1.90;;;;;;;;;;4931695;29;20079;-86
2022/06/30 03:00:30;;;;;;;3.25;1.65;;;;;;;;;;4931717;29;20024;-84
2022/06/30 03:02:57;;;;;;;6.43;1.90;;;;;;;;;;4946288;29;20027;-82
2022/06/30 03:05:24;;;;;;;5.20;1.70;;;;;;;;;;4931676;29;20450;-84
2022/06/30 03:07:50;;;;;;;3.83;1.83;;;;;;;;;;4932304;29;20020;-83
2022/06/30 03:10:16;;;;;;;4.38;1.55;;;;;;;;;;4931678;29;20059;-83
2022/06/30 03:12:42;;;;;;;8.02;1.80;;;;;;;;;;4946089;29;20400;-82
2022/06/30 03:15:09;;;;;;;2.63;1.63;;;;;;;;;;4946174;29;20037;-82
2022/06/30 03:17:35;;;;;;;4.55;1.48;;;;;;;;;;4931408;29;20078;-82
2022/06/30 03:20:01;;;;;;;1.92;1.30;;;;;;;;;;4931564;29;20056;-85
2022/06/30 03:22:27;;;;;;;2.88;1.42;;;;;;;;;;4931364;29;20448;-82
2022/06/30 03:24:53;;;;;;;4.38;1.90;;;;;;;;;;4931956;29;20036;-84
2022/06/30 03:27:19;;;;;;;4.75;1.50;;;;;;;;;;4932287;29;20028;-82
2022/06/30 03:29:45;;;;;;;5.05;1.70;;;;;;;;;;4931388;29;20031;-82
2022/06/30 03:32:11;;;;;;;6.00;2.33;;;;;;;;;;4931281;29;20028;-84
2022/06/30 03:34:39;;;;;;;3.33;1.50;;;;;;;;;;4931384;29;20055;-82
2022/06/30 03:37:05;;;;;;;6.87;1.70;;;;;;;;;;4934908;29;20484;-83
2022/06/30 03:39:31;;;;;;;4.88;1.67;;;;;;;;;;4934897;29;20251;-83
2022/06/30 03:41:57;;;;;;;11.23;1.70;;;;;;;;;;4934901;29;20107;-83
2022/06/30 03:44:23;;;;;;;1.95;1.67;;;;;;;;;;4935782;29;20148;-86
2022/06/30 03:46:49;;;;;;;4.80;1.70;;;;;;;;;;4934904;29;20400;-84
2022/06/30 03:49:16;;;;;;;4.93;1.90;;;;;;;;;;4934740;29;20028;-85
2022/06/30 03:51:42;;;;;;;4.30;1.92;;;;;;;;;;4935249;29;20035;-86
2022/06/30 03:54:08;;;;;;;5.70;1.90;;;;;;;;;;4934644;29;20031;-84
2022/06/30 03:56:34;;;;;;;4.35;1.80;;;;;;;;;;4934551;29;20124;-81
2022/06/30 03:59:00;;;;;;;4.30;2.08;;;;;;;;;;4934514;29;20468;-82
2022/06/30 04:01:26;;;;;;;6.45;1.80;;;;;;;;;;4934648;29;20035;-82
2022/06/30 04:03:52;;;;;;;5.60;1.95;;;;;;;;;;4935286;29;20111;-81
2022/06/30 04:06:23;;;;;;;5.30;1.80;;;13.20;99.90;;;;;;4934416;29;20031;-81
2022/06/30 04:08:48;;;;;;;7.45;1.73;;;13.20;99.90;;;;;;4949273;29;20507;-88
2022/06/30 04:11:14;;;;;;;6.15;1.95;;;13.30;99.90;;;;;;4934325;29;20027;-79
2022/06/30 04:13:40;;;;;;;6.30;1.90;;;13.30;99.90;;;;;;4934264;29;20039;-80
2022/06/30 04:16:05;;;;;;;4.13;1.65;;;13.30;99.90;;;;;;4949012;29;20039;-80
2022/06/30 04:18:31;;;;;;;7.22;1.80;;;13.20;99.90;;;;;;4934570;29;20024;-88
2022/06/30 04:20:56;;;;;;;4.80;1.70;;;13.20;99.90;;;;;;4934388;29;20024;-82
2022/06/30 04:23:22;;;;;;;4.75;1.60;;;13.20;99.90;;;;;;4935436;29;20159;-87
2022/06/30 04:25:48;;;;;;;5.88;1.70;;;13.20;99.90;;;;;;4934345;29;20032;-87
2022/06/30 04:28:13;;;;;;;5.85;1.70;;;13.20;99.90;;;;;;4934517;29;20023;-81
2022/06/30 04:33:23;;;;;;;6.45;2.05;;;13.20;99.90;;;;;;4940529;29;20023;-80
2022/06/30 04:35:49;;;;;;;5.22;1.50;;;13.20;99.90;;;;;;4944546;29;20028;-80
2022/06/30 04:38:14;;;;;;;7.80;2.05;;;13.20;99.90;;;;;;4937210;29;20035;-90
2022/06/30 04:43:24;;;;;;;4.57;2.00;;;13.20;99.90;;;;;;4949999;28;20058;-88
2022/06/30 04:45:50;;;;;;;4.85;1.90;;;13.20;99.90;;;;;;4946461;28;20059;-83
2022/06/30 04:48:16;;;;;;;4.20;1.55;;;13.20;99.90;;;;;;4951755;28;20031;-86
2022/06/30 04:50:41;;;;;;;6.43;1.63;;;13.20;99.90;;;;;;4951712;28;20035;-86
2022/06/30 04:53:07;;;;;;;3.72;1.52;;;13.10;99.90;;;;;;4952025;28;20070;-80
2022/06/30 04:55:34;;;;;;;8.27;1.63;;;13.20;99.90;;;;;;4966363;28;20024;-87
2022/06/30 04:57:59;;;;;;;6.28;1.77;;;13.20;99.90;;;;;;4945125;28;20118;-82
2022/06/30 05:00:25;;;;;;;3.05;1.67;;;13.20;99.90;;;;;;4952168;28;20098;-82
2022/06/30 05:02:50;;;;;;;3.55;1.73;;;13.20;99.90;;;;;;4951651;28;20023;-89
2022/06/30 05:05:16;;;;;;;5.22;1.70;;;13.30;99.90;;;;;;4951445;28;20832;-89
2022/06/30 05:07:42;;;;;;;7.35;2.03;;;13.30;99.90;;;;;;4951738;28;20483;-88
2022/06/30 05:10:08;;;;;;;4.70;2.15;;;13.30;99.90;;;;;;4950910;28;20576;-82
2022/06/30 05:12:33;;;;;;;4.63;1.80;;;13.30;99.90;;;;;;4952414;29;20554;-80
2022/06/30 05:14:59;;;;;;;5.18;1.90;;;13.40;99.90;;;;;;4951840;29;20070;-82
2022/06/30 05:17:25;;;;;;;5.85;1.92;;;13.40;99.90;;;;;;4952786;28;20035;-82
2022/06/30 05:19:50;;;;;;;6.75;1.77;;;13.50;99.90;;;;;;4952277;28;20028;-91
2022/06/30 05:22:16;;;;;;;6.07;2.13;;;13.50;99.90;;;;;;4952348;29;20151;-89
2022/06/30 05:27:26;;;;;;;3.70;1.70;;;13.60;99.90;;;;;;4952929;29;20039;-81
2022/06/30 05:29:52;;;;;;;3.45;1.55;;;13.80;99.90;;;;;;4952138;29;20027;-82
2022/06/30 05:32:17;;;;;;;6.75;1.80;;;13.80;99.90;;;;;;4952173;28;20034;-81
2022/06/30 05:34:43;;;;;;;6.55;2.22;;;13.90;99.90;;;;;;4950359;28;20031;-81
2022/06/30 05:37:09;;;;;;;4.85;1.70;;;14.00;99.90;;;;;;4951746;29;20039;-92
2022/06/30 05:39:34;;;;;;;7.22;2.10;;;14.00;99.90;;;;;;4951960;29;20070;-81
2022/06/30 05:42:01;;;;;;;6.97;2.10;;;14.10;99.90;;;;;;4951771;29;20031;-81
2022/06/30 05:44:28;;;;;;;4.53;2.15;;;14.10;99.90;;;;;;4952782;28;20015;-92
2022/06/30 05:46:54;;;;;;;6.00;2.33;;;14.10;99.90;;;;;;4952051;28;20553;-83
2022/06/30 05:49:21;;;;;;;8.38;2.47;;;14.20;99.90;;;;;;4951856;28;20352;-81
2022/06/30 05:51:47;;;;;;;5.30;2.15;;;14.20;99.90;;;;;;4951650;28;20031;-81
2022/06/30 05:54:12;;;;;;;4.53;2.20;;;14.20;99.90;;;;;;4951677;29;20525;-85
2022/06/30 05:56:38;;;;;;;7.28;2.40;;;14.20;99.90;;;;;;4966686;28;20042;-81
2022/06/30 05:59:04;;;;;;;5.07;2.10;;;14.30;99.90;;;;;;4951294;28;20023;-81
2022/06/30 06:01:29;;;;;;;6.50;2.30;;;14.30;99.90;;;;;;4952606;29;20041;-90
2022/06/30 06:03:55;;;;;;;5.47;2.00;;;14.40;99.90;;;;;;4951805;29;20110;-81
2022/06/30 06:06:20;;;;;;;9.52;2.40;;;14.40;99.90;;;;;;4951988;29;20175;-91
2022/06/30 06:08:46;;;;;;;9.73;2.30;;;14.40;99.90;;;;;;4951693;29;20399;-92
2022/06/30 06:11:12;;;;;;;7.80;2.20;;;14.40;99.90;;;;;;4951576;28;20479;-81
2022/06/30 06:13:37;;;;;;;8.38;2.25;;;14.50;99.90;;;;;;4951472;29;20093;-91
2022/06/30 06:16:03;;;;;;;7.43;2.20;;;14.50;99.90;;;;;;4951736;28;20027;-81
2022/06/30 06:18:29;;;;;;;11.63;2.75;;;14.50;99.90;;;;;;4952676;29;20031;-93
2022/06/30 06:20:54;;;;;;;8.65;2.65;;;14.60;99.90;;;;;;4951644;29;20023;-82
2022/06/30 06:23:20;;;;;;;8.38;2.45;;;14.70;99.90;;;;;;4951458;29;20051;-92
2022/06/30 06:25:46;;;;;;;8.15;2.55;;;14.70;99.90;;;;;;4951385;29;20066;-81
2022/06/30 06:30:56;;;;;;;7.70;2.22;;;14.70;99.90;;;;;;4951063;29;20026;-81
2022/06/30 06:33:22;;;;;;;12.75;2.45;;;14.80;99.90;;;;;;4951153;29;20319;-81
2022/06/30 06:35:47;;;;;;;12.38;2.80;;;14.80;99.90;;;;;;4951122;29;20062;-81
2022/06/30 06:38:13;;;;;;;8.50;2.08;;;14.80;99.90;;;;;;4951087;28;20035;-81
2022/06/30 06:40:39;;;;;;;9.95;2.40;;;14.90;99.90;;;;;;4951052;29;20078;-87
2022/06/30 06:43:04;;;;;;;9.25;2.25;;;14.90;99.90;;;;;;4951108;29;20038;-81
2022/06/30 06:45:30;;;;;;;8.95;2.10;;;14.90;99.90;;;;;;4952028;29;20027;-81
2022/06/30 06:47:56;;;;;;;5.53;2.30;;;15.00;99.90;;;;;;4951132;28;20027;-81
2022/06/30 06:50:22;;;;;;;9.70;2.40;;;15.10;99.90;;;;;;4950923;29;20109;-83
2022/06/30 06:52:47;;;;;;;13.63;2.33;;;15.10;99.90;;;;;;4951185;29;20159;-81
2022/06/30 06:55:14;;;;;;;8.90;2.45;;;15.10;99.90;;;;;;4950996;29;20031;-81
2022/06/30 06:57:40;;;;;;;9.80;2.15;;;15.20;99.90;;;;;;4951073;28;20039;-92
2022/06/30 07:00:07;;;;;;;10.32;2.30;;;15.20;99.90;;;;;;4951160;28;20558;-81
2022/06/30 07:02:33;;;;;;;9.90;2.40;;;15.30;99.90;;;;;;4952308;28;20027;-82
2022/06/30 07:04:59;;;;;;;15.02;2.20;;;15.30;99.90;;;;;;4951324;29;20028;-82
2022/06/30 07:07:25;;;;;;;11.27;2.22;;;15.30;99.90;;;;;;4951107;29;20306;-81
2022/06/30 07:09:51;;;;;;;7.72;2.28;;;15.20;99.90;;;;;;4963714;28;20476;-81
2022/06/30 07:12:16;;;;;;;14.27;2.25;;;15.20;99.90;;;;;;4956293;29;20031;-81
2022/06/30 07:14:42;;;;;;;14.60;3.03;;;15.20;99.90;;;;;;4954251;29;20031;-81
2022/06/30 07:17:07;;;;;;;12.75;2.53;;;15.20;99.90;;;;;;4954645;29;20031;-81
2022/06/30 07:19:33;;;;;;;7.03;2.10;;;15.20;99.90;;;;;;4955634;29;20046;-82
2022/06/30 07:21:59;;;;;;;11.07;2.45;;;15.20;99.90;;;;;;4954401;29;20039;-82
2022/06/30 07:24:24;;;;;;;8.15;2.30;;;15.30;99.90;;;;;;4969015;28;20341;-82
2022/06/30 07:26:50;;;;;;;15.02;2.47;;;15.20;99.90;;;;;;4943479;28;20413;-91
2022/06/30 07:29:16;;;;;;;9.95;2.30;;;15.30;99.90;;;;;;4942677;29;20403;-91
2022/06/30 07:31:42;;;;;;;10.82;2.42;;;15.20;99.90;;;;;;4944618;29;20027;-92
2022/06/30 07:34:08;;;;;;;10.70;2.25;;;15.20;99.90;;;;;;4944686;29;20030;-89
2022/06/30 07:36:35;;;;;;;10.25;2.88;;;15.20;99.90;;;;;;4943437;28;20028;-90
2022/06/30 07:39:02;;;;;;;11.30;2.30;;;15.30;99.90;;;;;;4944503;29;20482;-91
2022/06/30 07:41:28;;;;;;;13.23;3.08;;;15.30;99.90;;;;;;4947520;29;20035;-91
2022/06/30 07:43:54;;;;;;;11.77;2.35;;;15.40;99.90;;;;;;4945406;29;20020;-81
2022/06/30 07:46:20;;;;;;;10.88;2.42;;;15.50;99.90;;;;;;4943884;29;20016;-81
2022/06/30 07:48:47;;;;;;;16.02;2.70;;;15.40;99.90;;;;;;4958952;28;20027;-81
2022/06/30 07:51:14;;;;;;;9.32;2.22;;;15.50;99.90;;;;;;4942203;28;20428;-81
2022/06/30 07:53:40;;;;;;;13.63;2.35;;;15.60;99.90;;;;;;4943857;28;20019;-90
2022/06/30 07:56:06;;;;;;;14.05;2.50;;;15.70;99.90;;;;;;4944400;29;20028;-81
2022/06/30 07:58:33;;;;;;;13.27;2.20;;;15.80;99.90;;;;;;4943417;29;20024;-92
2022/06/30 08:00:59;;;;;;;9.57;2.22;;;15.80;99.90;;;;;;4943817;28;20023;-90
2022/06/30 08:03:24;;;;;;;14.48;2.38;;;15.90;99.90;;;;;;4943830;29;20027;-84
2022/06/30 08:05:50;;;;;;;20.98;3.05;;;15.90;99.90;;;;;;4942375;29;20377;-89
2022/06/30 08:08:16;;;;;;;16.20;2.83;;;15.90;99.90;;;;;;4944436;29;20033;-90
2022/06/30 08:10:41;;;;;;;9.70;2.35;;;15.90;99.90;;;;;;4958377;28;20034;-91
2022/06/30 08:13:08;;;;;;;12.52;2.35;;;15.80;99.90;;;;;;4942256;29;20037;-80
2022/06/30 08:15:34;;;;;;;11.82;2.05;;;15.90;99.90;;;;;;4942929;29;20024;-80
2022/06/30 08:18:04;;;;;;;12.98;2.42;;;15.90;99.90;;;;;;4944471;29;20083;-81
2022/06/30 08:20:30;;;;;;;11.00;2.10;;;15.90;99.90;;;;;;4949779;28;20027;-80
2022/06/30 08:22:56;;;;;;;12.95;2.30;;;15.90;99.90;;;;;;4953341;28;20882;-80
2022/06/30 08:25:21;;;;;;;12.50;2.03;;;16.00;99.90;;;;;;4953669;29;20023;-91
2022/06/30 08:27:47;;;;;;;14.02;3.15;;;16.20;99.90;;;;;;4953689;29;20027;-90
2022/06/30 08:30:13;;;;;;;13.05;2.30;;;16.30;99.90;;;;;;4953568;29;20052;-81
2022/06/30 08:32:40;;;;;;;13.68;2.00;;;16.50;99.90;;;;;;4949955;29;20027;-79
2022/06/30 08:35:06;;;;;;;11.18;2.22;;;16.60;99.90;;;;;;4944389;29;20043;-80
2022/06/30 08:37:32;;;;;;;12.77;2.13;;;16.70;99.90;;;;;;4946874;28;20381;-85
2022/06/30 08:42:42;;;;;;;11.35;2.20;;;16.80;99.90;;;;;;4943380;29;20034;-88
2022/06/30 08:45:17;;;;;;;10.35;1.92;;;16.80;99.90;;;;;;4941820;29;20468;-80
2022/06/30 08:47:43;;;;;;;13.20;2.00;;;16.80;99.90;;;;;;4941205;28;20023;-88
2022/06/30 08:50:09;;;;;;;7.57;1.73;;;16.60;99.90;;;;;;4942789;28;20484;-88
2022/06/30 08:52:41;;;;;;;11.20;1.90;;;16.50;99.90;;;;;;4943064;29;20046;-80
2022/06/30 08:55:09;;;;;;;8.10;1.80;;;16.50;99.90;;;;;;4939018;29;20031;-81
2022/06/30 08:57:35;;;;;;;10.95;2.30;;;16.40;99.90;;;;;;4934586;29;20114;-80
2022/06/30 09:00:00;;;;;;;7.88;1.67;;;16.50;99.90;;;;;;4933841;29;20079;-89
2022/06/30 09:02:26;;;;;;;9.95;1.90;;;16.40;99.90;;;;;;4933901;29;20024;-89
2022/06/30 09:04:52;;;;;;;5.85;1.33;;;16.40;99.90;;;;;;4933796;29;20040;-80
2022/06/30 09:07:17;;;;;;;8.18;1.95;;;16.30;99.90;;;;;;4933579;29;20032;-81
2022/06/30 09:09:43;;;;;;;9.27;1.70;;;16.20;99.90;;;;;;4933091;29;20074;-80
2022/06/30 09:12:17;;;;;;;9.05;1.80;;;16.30;99.90;;;;;;4948563;29;20055;-86
2022/06/30 09:14:47;;;;;;;8.15;1.73;;;16.40;99.90;;;;;;4934031;29;20063;-90
2022/06/30 09:17:19;;;;;;;11.98;2.15;;;16.40;99.90;;;;;;4933756;29;20070;-81
2022/06/30 09:20:08;;;;;;;8.45;2.00;;;16.50;99.90;;;;;;4934008;29;20024;-90
2022/06/30 09:22:36;;;;;;;7.05;1.63;;;16.40;99.90;;;;;;4933612;29;20519;-80
2022/06/30 09:25:04;;;;;;;6.93;1.40;;;16.40;99.90;;;;;;4933185;29;20031;-92
2022/06/30 09:27:31;;;;;;;7.93;1.75;;;16.60;99.90;;;;;;4933595;29;20042;-91
2022/06/30 09:30:04;;;;;;;7.25;1.50;;;16.80;99.90;;;;;;4947994;29;20099;-81
2022/06/30 09:32:31;;;;;;;11.13;1.88;;;16.90;99.90;;;;;;4932239;29;20122;-80
2022/06/30 09:35:10;;;;;;;8.10;1.90;;;17.10;99.90;;;;;;4932760;29;20079;-80
2022/06/30 09:37:37;;;;;;;10.32;1.90;;;17.40;99.90;;;;;;4935672;29;20038;-90
2022/06/30 09:40:05;;;;;;;12.30;1.80;;;17.40;99.90;;;;;;4933309;29;20027;-81
2022/06/30 09:42:41;;;;;;;7.22;1.50;;;17.30;99.90;;;;;;4933456;29;20020;-89
2022/06/30 09:45:09;;;;;;;10.75;1.83;;;17.00;99.90;;;;;;4934544;29;20034;-90
2022/06/30 09:47:36;;;;;;;5.15;1.73;;;16.90;99.90;;;;;;4933774;29;20038;-80
2022/06/30 09:50:07;;;;;;;8.35;1.50;;;17.10;99.90;;;;;;4933012;29;20492;-91
2022/06/30 09:52:33;;;;;;;9.18;1.98;;;17.30;99.90;;;;;;4932567;29;20118;-91
2022/06/30 09:55:00;;;;;;;12.63;1.80;;;17.40;99.90;;;;;;4932889;29;20024;-81
2022/06/30 09:57:28;;;;;;;9.07;2.40;;;17.40;99.90;;;;;;4932767;29;20555;-81
2022/06/30 10:00:06;;;;;;;5.82;1.45;;;17.30;99.90;;;;;;4932776;29;20035;-82
2022/06/30 10:02:37;;;;;;;7.05;1.83;;;17.20;99.90;;;;;;4932781;29;20522;-81
2022/06/30 10:05:04;;;;;;;8.32;1.60;;;17.10;99.90;;;;;;4932931;29;20030;-80
2022/06/30 10:07:34;;;;;;;6.88;1.17;;;17.00;99.90;;;;;;4932055;29;20024;-89
2022/06/30 10:10:08;;;;;;;4.50;0.98;;;16.90;99.90;;;;;;4932680;29;20040;-90
2022/06/30 10:12:34;;;;;;;5.25;1.35;;;16.80;99.90;;;;;;4946914;29;20087;-81
2022/06/30 10:15:00;;;;;;;5.57;1.02;;;16.60;99.90;;;;;;4947260;29;20055;-87
2022/06/30 10:17:50;;;;;;;7.28;1.33;;;16.60;99.90;;;;;;4932482;29;20040;-80
2022/06/30 10:20:16;;;;;;;4.18;1.15;;;16.80;99.90;;;;;;4932508;29;20091;-89
2022/06/30 10:22:42;;;;;;;3.03;1.13;;;17.10;99.90;;;;;;4932765;29;20480;-80
2022/06/30 10:25:09;;;;;;;9.07;1.40;;;17.30;99.90;;;;;;4933511;29;20059;-90
2022/06/30 10:27:34;;;;;;;8.45;1.25;;;17.30;99.90;;;;;;4932708;29;20031;-92
2022/06/30 10:30:12;;;;;;;6.22;1.20;;;17.30;99.90;;;;;;4932957;29;20028;-91
2022/06/30 10:32:46;;;;;;;4.05;1.08;;;17.30;99.90;;;;;;4933351;29;20032;-90
2022/06/30 10:35:36;;;;;;;6.18;1.40;;;17.50;99.90;;;;;;4933055;29;20059;-80
2022/06/30 10:38:27;;;;;;;7.43;1.55;;;17.80;99.90;;;;;;4931598;29;20063;-90
2022/06/30 10:41:14;;;;;;;9.95;1.70;;;18.10;99.90;;;;;;4931211;29;20047;-89
2022/06/30 10:44:05;;;;;;;8.03;2.00;;;18.30;99.90;;;;;;4951878;28;20031;-90
2022/06/30 10:46:33;;;;;;;4.93;1.42;;;18.30;99.90;;;;;;4951181;29;20399;-80
2022/06/30 10:48:58;;;;;;;4.40;1.50;;;18.30;99.90;;;;;;4951376;28;20503;-80
2022/06/30 10:51:25;;;;;;;6.32;1.60;;;18.20;99.90;;;;;;4946353;29;20035;-82
2022/06/30 10:53:56;;;;;;;7.18;1.30;;;18.30;99.90;;;;;;4946680;28;20099;-90
2022/06/30 10:56:43;;;;;;;4.25;1.25;;;18.30;99.90;;;;;;4943490;29;20027;-91
2022/06/30 10:59:13;;;;;;;3.15;1.10;;;18.50;99.90;;;;;;4932468;29;20036;-93
2022/06/30 11:02:00;;;;;;;4.93;1.20;;;18.60;99.90;;;;;;4944091;29;20136;-91
2022/06/30 11:04:25;;;;;;;5.75;1.20;;;18.80;99.90;;;;;;4950743;29;20031;-82
2022/06/30 11:07:00;;;;;;;5.53;1.35;;;18.60;97.20;;;;;;4950255;28;20472;-87
2022/06/30 11:09:44;;;;;;;4.00;1.40;;;18.20;98.40;;;;;;4950175;28;20027;-81
2022/06/30 11:12:39;;;;;;;2.97;1.05;;;17.90;99.90;;;;;;4952098;29;20031;-82
2022/06/30 11:15:05;;;;;;;3.95;1.15;;;17.70;99.90;;;;;;4951740;29;20035;-92
2022/06/30 11:17:35;;;;;;;3.80;1.10;;;17.90;99.90;;;;;;4951381;29;20059;-92
2022/06/30 11:20:02;;;;;;;4.45;1.17;;;17.90;99.90;;;;;;4951475;28;20015;-82
2022/06/30 11:22:29;;;;;;;4.20;1.05;;;17.80;99.10;;;;;;4965331;28;20373;-81
2022/06/30 11:24:58;;;;;;;3.38;1.00;;;17.50;97.50;;;;;;4951063;28;20360;-82
2022/06/30 11:27:25;;;;;;;2.88;0.80;;;17.50;99.90;;;;;;4950961;28;20030;-82
2022/06/30 11:29:59;;;;;;;5.53;1.20;;;17.60;99.90;;;;;;4951196;28;20020;-91
2022/06/30 11:32:26;;;;;;;6.28;0.90;;;17.90;99.60;;;;;;4951310;28;20031;-92
2022/06/30 11:34:53;;;;;;;2.90;1.10;;;17.90;87.40;;;;;;4950931;29;20082;-82
2022/06/30 11:37:23;;;;;;;3.85;0.90;;;17.90;88.40;;;;;;4950048;28;20098;-81
2022/06/30 11:40:02;;;;;;;3.42;0.90;;;18.00;97.10;;;;;;4950762;28;20050;-81
2022/06/30 11:42:28;;;;;;;4.32;0.93;;;18.50;98.30;;;;;;4950750;28;20019;-81
2022/06/30 11:44:54;;;;;;;3.58;1.00;;;18.80;96.30;;;;;;4950750;28;20055;-82
2022/06/30 11:47:22;;;;;;;6.40;0.90;;;18.80;91.90;;;;;;4950725;29;20424;-91
2022/06/30 11:49:52;;;;;;;4.20;1.02;;;18.80;91.70;;;;;;4950788;28;20035;-81
2022/06/30 11:52:41;;;;;;;3.35;0.95;;;18.60;86.10;;;;;;4950224;28;20031;-82
2022/06/30 11:55:17;;;;;;;1.92;0.90;;;18.40;87.60;;;;;;4965530;28;20267;-81
2022/06/30 11:57:45;;;;;;;2.47;1.00;;;18.30;86.40;;;;;;4954360;28;20031;-91
2022/06/30 12:00:20;;;;;;;1.98;0.88;;;18.40;91.90;;;;;;4954266;28;20078;-91
2022/06/30 12:02:47;;;;;;;2.20;0.70;;;18.60;92.80;;;;;;4954943;28;20046;-92
2022/06/30 12:05:19;;;;;;;2.47;0.80;;;18.80;94.00;;;;;;4955015;28;20534;-90
2022/06/30 12:07:46;;;;;;;7.75;1.20;;;19.00;90.00;;;;;;4969424;28;20024;-92
2022/06/30 12:10:15;;;;;;;1.52;0.57;;;18.90;82.30;;;;;;4954639;28;20392;-92
2022/06/30 12:12:41;;;;;;;1.20;0.60;;;18.90;83.90;;;;;;4953705;28;20067;-81
2022/06/30 12:15:10;;;;;;;2.85;0.80;;;19.00;89.40;;;;;;4968610;28;20024;-91
2022/06/30 12:17:50;;;;;;;2.65;0.90;;;19.20;86.90;;;;;;4953805;28;20062;-82
2022/06/30 12:20:16;;;;;;;5.22;0.98;;;19.20;84.50;;;;;;4954823;28;20027;-82
2022/06/30 12:22:45;;;;;;;4.85;0.80;;;19.20;77.60;;;;;;4953285;28;20023;-82
2022/06/30 12:25:12;;;;;;;0.93;0.60;;;19.30;83.30;;;;;;4952457;28;20042;-91
2022/06/30 12:27:41;;;;;;;4.55;1.10;;;19.40;90.20;;;;;;4953715;28;20027;-82
2022/06/30 12:30:12;;;;;;;5.10;0.90;;;19.50;73.40;;;;;;4953488;28;20042;-82
2022/06/30 12:32:38;;;;;;;3.63;0.80;;;19.50;82.00;;;;;;4953687;28;20345;-93
2022/06/30 12:35:12;;;;;;;4.60;1.10;;;19.60;84.30;;;;;;4953471;28;20491;-83
2022/06/30 12:37:41;;;;;;;3.35;0.95;;;19.50;75.00;;;;;;4952801;28;20097;-82
2022/06/30 12:40:12;;;;;;;5.07;1.05;;;19.40;78.40;;;;;;4950028;28;20016;-81
2022/06/30 12:42:50;;;;;;;6.65;1.30;;;19.70;83.00;;;;;;4938582;28;20406;-91
2022/06/30 12:45:34;;;;;;;1.92;0.80;;;19.80;76.80;;;;;;4934927;29;20048;-81
2022/06/30 12:48:00;;;;;;;1.92;0.88;;;19.60;73.40;;;;;;4934734;29;20028;-89
2022/06/30 12:50:26;;;;;;;2.03;0.80;;;19.30;77.50;;;;;;4934747;29;20103;-93
2022/06/30 12:52:51;;;;;;;3.92;0.95;;;19.10;80.60;;;;;;4934143;29;20055;-92
2022/06/30 12:55:17;;;;;;;4.82;1.10;;;18.90;81.00;;;;;;4956943;28;20027;-90
2022/06/30 12:57:49;;;;;;;2.17;1.00;;;18.70;80.40;;;;;;4953572;28;20054;-90
2022/06/30 13:00:15;;;;;;;3.80;1.10;;;18.50;82.30;;;;;;4969332;28;20058;-90
2022/06/30 13:02:42;;;;;;;3.45;1.27;;;18.40;87.20;;;;;;4953401;29;20077;-91
2022/06/30 13:05:12;;;;;;;7.75;1.13;;;18.20;86.40;;;;;;4952938;28;20050;-86
2022/06/30 13:07:38;;;;;;;5.65;0.75;;;18.00;90.50;;;;;;4952026;28;20025;-92
2022/06/30 13:10:05;;;;;;;2.05;0.80;;;17.70;91.40;;;;;;4943347;29;20040;-82
2022/06/30 13:12:30;;;;;;;4.38;0.75;;;17.50;93.40;;;;;;4947784;28;20106;-91
2022/06/30 13:14:56;;;;;;;6.65;1.10;;;17.00;96.70;;;;;;4950580;29;20559;-87
2022/06/30 13:17:22;;;;;;;2.17;0.70;;;16.70;97.80;;;;;;4950871;28;20479;-92
2022/06/30 13:19:48;;;;;;;1.75;0.60;;;16.60;98.80;;;;;;4951240;29;20094;-88
2022/06/30 13:22:14;;;;;;;2.65;0.90;;;16.40;99.60;;;;;;4949805;28;20376;-81
2022/06/30 13:24:40;;;;;;;3.10;0.70;;;16.20;99.90;;;;;;4951778;28;20055;-82
2022/06/30 13:27:07;;;;;;;2.88;0.80;;;16.10;99.90;;;;;;4967727;28;20026;-87
2022/06/30 13:29:34;;;;;;;3.63;1.00;;;16.10;99.90;;;;;;4952606;28;20078;-91
2022/06/30 13:32:00;;;;;;;6.28;1.10;;;16.00;99.90;;;;;;4950887;28;20057;-82
2022/06/30 13:34:26;;;;;;;2.10;0.88;;;16.00;99.90;;;;;;4952689;28;20027;-86
2022/06/30 13:36:52;;;;;;;5.10;0.88;;;16.10;99.90;;;;;;4952870;29;20090;-91
2022/06/30 13:39:18;;;;;;;2.83;0.80;;;16.10;99.90;;;;;;4953228;28;20023;-88